createdAt,value
2022-12-01T00:00:19.450Z,1020.36
2022-12-01T00:01:19.453Z,1020.40
2022-12-01T00:02:19.645Z,1020.38
2022-12-01T00:03:19.605Z,1020.37
2022-12-01T00:04:19.433Z,1020.43
2022-12-01T00:05:19.397Z,1020.43
2022-12-01T00:06:19.385Z,1020.43
2022-12-01T00:07:19.478Z,1020.42
2022-12-01T00:08:19.363Z,1020.42
2022-12-01T00:09:20.113Z,1020.38
2022-12-01T00:10:19.349Z,1020.44
2022-12-01T00:11:19.339Z,1020.42
2022-12-01T00:12:19.325Z,1020.40
2022-12-01T00:13:19.304Z,1020.45
2022-12-01T00:14:19.300Z,1020.43
2022-12-01T00:15:19.301Z,1020.36
2022-12-01T00:16:19.305Z,1020.35
2022-12-01T00:17:19.267Z,1020.39
2022-12-01T00:18:19.348Z,1020.39
2022-12-01T00:19:19.236Z,1020.32
2022-12-01T00:20:19.236Z,1020.38
2022-12-01T00:21:19.210Z,1020.32
2022-12-01T00:22:19.205Z,1020.38
2022-12-01T00:23:19.195Z,1020.39
2022-12-01T00:24:19.180Z,1020.36
2022-12-01T00:25:19.184Z,1020.37
2022-12-01T00:26:19.160Z,1020.34
2022-12-01T00:27:19.147Z,1020.32
2022-12-01T00:28:19.140Z,1020.41
2022-12-01T00:29:19.144Z,1020.34
2022-12-01T00:30:19.109Z,1020.30
2022-12-01T00:31:19.189Z,1020.37
2022-12-01T00:32:19.093Z,1020.31
2022-12-01T00:33:19.083Z,1020.28
2022-12-01T00:34:19.087Z,1020.33
2022-12-01T00:35:19.051Z,1020.32
2022-12-01T00:36:19.048Z,1020.29
2022-12-01T00:37:19.036Z,1020.31
2022-12-01T00:38:19.043Z,1020.27
2022-12-01T00:39:19.017Z,1020.31
2022-12-01T00:40:18.994Z,1020.35
2022-12-01T00:41:18.981Z,1020.36
2022-12-01T00:42:18.974Z,1020.37
2022-12-01T00:43:18.973Z,1020.33
2022-12-01T00:44:18.946Z,1020.33
2022-12-01T00:45:18.945Z,1020.37
2022-12-01T00:46:18.994Z,1020.42
2022-12-01T00:47:18.913Z,1020.39
2022-12-01T00:48:18.905Z,1020.37
2022-12-01T00:49:18.909Z,1020.38
2022-12-01T00:50:18.922Z,1020.36
2022-12-01T00:51:18.873Z,1020.38
2022-12-01T00:52:18.859Z,1020.38
2022-12-01T00:53:18.845Z,1020.38
2022-12-01T00:54:18.837Z,1020.33
2022-12-01T00:55:18.820Z,1020.37
2022-12-01T00:56:18.838Z,1020.38
2022-12-01T00:57:18.812Z,1020.41
2022-12-01T00:58:18.797Z,1020.40
2022-12-01T00:59:18.784Z,1020.39
2022-12-01T01:00:18.774Z,1020.38
2022-12-01T01:01:18.795Z,1020.40
2022-12-01T01:02:18.829Z,1020.40
2022-12-01T01:03:18.745Z,1020.36
2022-12-01T01:04:18.722Z,1020.39
2022-12-01T01:05:18.731Z,1020.39
2022-12-01T01:06:18.727Z,1020.38
2022-12-01T01:07:18.695Z,1020.34
2022-12-01T01:08:18.684Z,1020.36
2022-12-01T01:09:18.672Z,1020.36
2022-12-01T01:10:18.656Z,1020.43
2022-12-01T01:11:18.659Z,1020.35
2022-12-01T01:12:18.631Z,1020.38
2022-12-01T01:13:18.624Z,1020.40
2022-12-01T01:14:18.616Z,1020.45
2022-12-01T01:15:18.592Z,1020.40
2022-12-01T01:16:18.680Z,1020.41
2022-12-01T01:17:18.572Z,1020.44
2022-12-01T01:18:18.586Z,1020.47
2022-12-01T01:19:18.553Z,1020.37
2022-12-01T01:20:18.545Z,1020.41
2022-12-01T01:21:18.530Z,1020.49
2022-12-01T01:22:18.538Z,1020.49
2022-12-01T01:23:18.518Z,1020.46
2022-12-01T01:24:18.506Z,1020.51
2022-12-01T01:25:18.496Z,1020.48
2022-12-01T01:26:18.503Z,1020.53
2022-12-01T01:27:18.479Z,1020.54
2022-12-01T01:28:18.484Z,1020.53
2022-12-01T01:29:18.443Z,1020.54
2022-12-01T01:30:18.431Z,1020.54
2022-12-01T01:31:18.505Z,1020.52
2022-12-01T01:32:18.431Z,1020.53
2022-12-01T01:33:18.393Z,1020.57
2022-12-01T01:34:18.395Z,1020.56
2022-12-01T01:35:18.368Z,1020.58
2022-12-01T01:36:18.363Z,1020.56
2022-12-01T01:37:18.350Z,1020.55
2022-12-01T01:38:18.367Z,1020.55
2022-12-01T01:39:18.325Z,1020.59
2022-12-01T01:40:18.318Z,1020.61
2022-12-01T01:41:18.368Z,1020.59
2022-12-01T01:42:18.316Z,1020.61
2022-12-01T01:43:18.334Z,1020.59
2022-12-01T01:44:18.267Z,1020.62
2022-12-01T01:45:18.296Z,1020.59
2022-12-01T01:46:18.398Z,1020.56
2022-12-01T01:47:18.238Z,1020.58
2022-12-01T01:48:18.223Z,1020.62
2022-12-01T01:49:18.218Z,1020.64
2022-12-01T01:50:18.212Z,1020.57
2022-12-01T01:51:18.187Z,1020.60
2022-12-01T01:52:18.180Z,1020.57
2022-12-01T01:53:18.172Z,1020.58
2022-12-01T01:54:18.179Z,1020.54
2022-12-01T01:55:18.148Z,1020.61
2022-12-01T01:56:18.134Z,1020.59
2022-12-01T01:57:18.127Z,1020.50
2022-12-01T01:58:18.112Z,1020.57
2022-12-01T01:59:18.114Z,1020.59
2022-12-01T02:00:18.102Z,1020.54
2022-12-01T02:01:18.101Z,1020.55
2022-12-01T02:02:18.122Z,1020.57
2022-12-01T02:03:18.060Z,1020.53
2022-12-01T02:04:18.049Z,1020.52
2022-12-01T02:05:18.056Z,1020.59
2022-12-01T02:06:18.016Z,1020.59
2022-12-01T02:07:19.061Z,1020.51
2022-12-01T02:08:18.028Z,1020.58
2022-12-01T02:09:18.071Z,1020.53
2022-12-01T02:10:17.991Z,1020.60
2022-12-01T02:11:17.956Z,1020.59
2022-12-01T02:12:17.954Z,1020.56
2022-12-01T02:13:17.993Z,1020.50
2022-12-01T02:14:17.964Z,1020.54
2022-12-01T02:15:17.959Z,1020.53
2022-12-01T02:16:17.951Z,1020.54
2022-12-01T02:17:17.894Z,1020.56
2022-12-01T02:18:17.914Z,1020.59
2022-12-01T02:19:17.873Z,1020.62
2022-12-01T02:20:17.870Z,1020.54
2022-12-01T02:21:17.862Z,1020.56
2022-12-01T02:22:17.841Z,1020.54
2022-12-01T02:23:17.833Z,1020.54
2022-12-01T02:24:17.852Z,1020.57
2022-12-01T02:25:17.796Z,1020.58
2022-12-01T02:26:18.421Z,1020.55
2022-12-01T02:27:17.774Z,1020.56
2022-12-01T02:28:17.766Z,1020.59
2022-12-01T02:29:17.756Z,1020.52
2022-12-01T02:30:17.763Z,1020.55
2022-12-01T02:31:17.842Z,1020.55
2022-12-01T02:32:17.720Z,1020.49
2022-12-01T02:33:17.706Z,1020.61
2022-12-01T02:34:17.710Z,1020.56
2022-12-01T02:35:17.732Z,1020.56
2022-12-01T02:36:17.699Z,1020.50
2022-12-01T02:37:17.658Z,1020.51
2022-12-01T02:38:17.654Z,1020.50
2022-12-01T02:39:17.638Z,1020.54
2022-12-01T02:40:17.659Z,1020.46
2022-12-01T02:41:17.627Z,1020.52
2022-12-01T02:42:17.629Z,1020.50
2022-12-01T02:43:17.595Z,1020.50
2022-12-01T02:44:17.593Z,1020.47
2022-12-01T02:45:17.568Z,1020.51
2022-12-01T02:46:17.626Z,1020.58
2022-12-01T02:47:17.559Z,1020.51
2022-12-01T02:48:17.545Z,1020.55
2022-12-01T02:49:17.531Z,1020.55
2022-12-01T02:50:17.514Z,1020.53
2022-12-01T02:51:17.535Z,1020.48
2022-12-01T02:52:17.503Z,1020.50
2022-12-01T02:53:17.483Z,1020.51
2022-12-01T02:54:17.468Z,1020.53
2022-12-01T02:55:17.464Z,1020.49
2022-12-01T02:56:17.449Z,1020.51
2022-12-01T02:57:17.439Z,1020.60
2022-12-01T02:58:17.459Z,1020.49
2022-12-01T02:59:17.409Z,1020.48
2022-12-01T03:00:17.415Z,1020.52
2022-12-01T03:01:17.424Z,1020.49
2022-12-01T03:02:17.526Z,1020.47
2022-12-01T03:03:17.366Z,1020.50
2022-12-01T03:04:17.356Z,1020.48
2022-12-01T03:05:17.340Z,1020.52
2022-12-01T03:06:17.338Z,1020.53
2022-12-01T03:07:17.331Z,1020.49
2022-12-01T03:08:17.312Z,1020.50
2022-12-01T03:09:17.295Z,1020.53
2022-12-01T03:10:17.305Z,1020.55
2022-12-01T03:11:17.274Z,1020.50
2022-12-01T03:12:17.272Z,1020.48
2022-12-01T03:13:17.263Z,1020.50
2022-12-01T03:14:17.264Z,1020.49
2022-12-01T03:15:17.230Z,1020.50
2022-12-01T03:16:17.290Z,1020.56
2022-12-01T03:17:17.205Z,1020.44
2022-12-01T03:18:17.238Z,1020.53
2022-12-01T03:19:17.180Z,1020.50
2022-12-01T03:20:17.173Z,1020.50
2022-12-01T03:21:17.174Z,1020.46
2022-12-01T03:22:17.156Z,1020.52
2022-12-01T03:23:17.143Z,1020.48
2022-12-01T03:24:17.144Z,1020.46
2022-12-01T03:25:17.117Z,1020.47
2022-12-01T03:26:17.110Z,1020.51
2022-12-01T03:27:17.100Z,1020.37
2022-12-01T03:28:21.880Z,1020.44
2022-12-01T03:29:18.089Z,1020.45
2022-12-01T03:30:17.089Z,1020.48
2022-12-01T03:31:17.085Z,1020.48
2022-12-01T03:32:17.044Z,1020.49
2022-12-01T03:33:17.029Z,1020.46
2022-12-01T03:34:17.019Z,1020.46
2022-12-01T03:35:17.014Z,1020.48
2022-12-01T03:36:17.005Z,1020.47
2022-12-01T03:37:16.993Z,1020.44
2022-12-01T03:38:17.007Z,1020.45
2022-12-01T03:39:16.954Z,1020.50
2022-12-01T03:40:16.945Z,1020.52
2022-12-01T03:41:16.949Z,1020.48
2022-12-01T03:42:16.930Z,1020.52
2022-12-01T03:43:16.921Z,1020.53
2022-12-01T03:44:16.929Z,1020.52
2022-12-01T03:45:16.886Z,1020.56
2022-12-01T03:46:16.938Z,1020.50
2022-12-01T03:47:16.871Z,1020.53
2022-12-01T03:48:16.860Z,1020.49
2022-12-01T03:49:16.873Z,1020.50
2022-12-01T03:50:16.837Z,1020.58
2022-12-01T03:51:16.829Z,1020.50
2022-12-01T03:52:16.812Z,1020.47
2022-12-01T03:53:16.796Z,1020.45
2022-12-01T03:54:16.798Z,1020.54
2022-12-01T03:55:16.787Z,1020.50
2022-12-01T03:56:16.774Z,1020.53
2022-12-01T03:57:16.750Z,1020.50
2022-12-01T03:58:16.746Z,1020.53
2022-12-01T03:59:16.727Z,1020.54
2022-12-01T04:00:16.747Z,1020.56
2022-12-01T04:01:16.778Z,1020.48
2022-12-01T04:02:16.718Z,1020.49
2022-12-01T04:03:16.715Z,1020.53
2022-12-01T04:04:16.676Z,1020.60
2022-12-01T04:05:19.924Z,1020.58
2022-12-01T04:06:17.677Z,1020.71
2022-12-01T04:07:16.640Z,1020.61
2022-12-01T04:08:16.638Z,1020.62
2022-12-01T04:09:16.617Z,1020.62
2022-12-01T04:10:16.615Z,1020.62
2022-12-01T04:11:16.617Z,1020.67
2022-12-01T04:12:16.592Z,1020.68
2022-12-01T04:13:16.571Z,1020.63
2022-12-01T04:14:16.564Z,1020.58
2022-12-01T04:15:16.555Z,1020.61
2022-12-01T04:16:16.605Z,1020.64
2022-12-01T04:17:16.524Z,1020.59
2022-12-01T04:18:16.536Z,1020.66
2022-12-01T04:19:16.509Z,1020.62
2022-12-01T04:20:16.508Z,1020.62
2022-12-01T04:21:16.492Z,1020.58
2022-12-01T04:22:16.489Z,1020.61
2022-12-01T04:23:16.459Z,1020.69
2022-12-01T04:24:16.461Z,1020.60
2022-12-01T04:25:16.452Z,1020.65
2022-12-01T04:26:16.433Z,1020.64
2022-12-01T04:27:16.420Z,1020.65
2022-12-01T04:28:16.416Z,1020.62
2022-12-01T04:29:16.395Z,1020.62
2022-12-01T04:30:16.385Z,1020.62
2022-12-01T04:31:16.449Z,1020.61
2022-12-01T04:32:16.380Z,1020.62
2022-12-01T04:33:16.350Z,1020.60
2022-12-01T04:34:16.355Z,1020.56
2022-12-01T04:35:16.328Z,1020.59
2022-12-01T04:36:16.308Z,1020.60
2022-12-01T04:37:16.302Z,1020.58
2022-12-01T04:38:16.306Z,1020.57
2022-12-01T04:39:16.292Z,1020.64
2022-12-01T04:40:16.274Z,1020.64
2022-12-01T04:41:16.253Z,1020.61
2022-12-01T04:42:16.241Z,1020.60
2022-12-01T04:43:16.238Z,1020.65
2022-12-01T04:44:16.244Z,1020.58
2022-12-01T04:45:16.214Z,1020.57
2022-12-01T04:46:16.252Z,1020.60
2022-12-01T04:47:16.193Z,1020.62
2022-12-01T04:48:16.188Z,1020.57
2022-12-01T04:49:16.176Z,1020.63
2022-12-01T04:50:16.180Z,1020.55
2022-12-01T04:51:16.149Z,1020.52
2022-12-01T04:52:16.124Z,1020.59
2022-12-01T04:53:16.117Z,1020.60
2022-12-01T04:54:16.110Z,1020.60
2022-12-01T04:55:16.110Z,1020.54
2022-12-01T04:56:16.088Z,1020.56
2022-12-01T04:57:16.074Z,1020.55
2022-12-01T04:58:16.062Z,1020.52
2022-12-01T04:59:16.052Z,1020.60
2022-12-01T05:00:16.066Z,1020.61
2022-12-01T05:01:16.060Z,1020.68
2022-12-01T05:02:16.132Z,1020.67
2022-12-01T05:03:16.008Z,1020.68
2022-12-01T05:04:15.988Z,1020.65
2022-12-01T05:05:15.981Z,1020.71
2022-12-01T05:06:16.008Z,1020.65
2022-12-01T05:07:15.957Z,1020.65
2022-12-01T05:08:15.947Z,1020.67
2022-12-01T05:09:17.715Z,1020.70
2022-12-01T05:10:15.922Z,1020.69
2022-12-01T05:11:15.926Z,1020.68
2022-12-01T05:12:15.902Z,1020.68
2022-12-01T05:13:15.893Z,1020.64
2022-12-01T05:14:15.888Z,1020.63
2022-12-01T05:15:15.882Z,1020.65
2022-12-01T05:16:15.951Z,1020.62
2022-12-01T05:17:15.851Z,1020.63
2022-12-01T05:18:15.874Z,1020.54
2022-12-01T05:19:16.060Z,1020.60
2022-12-01T05:20:15.821Z,1020.57
2022-12-01T05:21:15.803Z,1020.61
2022-12-01T05:22:15.822Z,1020.62
2022-12-01T05:23:17.173Z,1020.65
2022-12-01T05:24:15.765Z,1020.60
2022-12-01T05:25:15.760Z,1020.61
2022-12-01T05:26:15.741Z,1020.64
2022-12-01T05:27:15.759Z,1020.63
2022-12-01T05:28:15.718Z,1020.66
2022-12-01T05:29:15.707Z,1020.63
2022-12-01T05:30:15.699Z,1020.62
2022-12-01T05:31:15.744Z,1020.58
2022-12-01T05:32:15.671Z,1020.60
2022-12-01T05:33:15.676Z,1020.63
2022-12-01T05:34:15.647Z,1020.60
2022-12-01T05:35:15.640Z,1020.61
2022-12-01T05:36:15.627Z,1020.63
2022-12-01T05:37:15.643Z,1020.64
2022-12-01T05:38:15.645Z,1020.60
2022-12-01T05:39:15.597Z,1020.60
2022-12-01T05:40:15.586Z,1020.61
2022-12-01T05:41:15.573Z,1020.59
2022-12-01T05:42:15.560Z,1020.61
2022-12-01T05:43:15.562Z,1020.59
2022-12-01T05:44:15.552Z,1020.61
2022-12-01T05:45:15.534Z,1020.56
2022-12-01T05:46:15.553Z,1020.58
2022-12-01T05:47:22.624Z,1020.58
2022-12-01T05:48:15.490Z,1020.60
2022-12-01T05:49:15.499Z,1020.56
2022-12-01T05:50:15.466Z,1020.62
2022-12-01T05:51:15.459Z,1020.60
2022-12-01T05:52:15.458Z,1020.60
2022-12-01T05:53:15.440Z,1020.63
2022-12-01T05:54:15.462Z,1020.56
2022-12-01T05:55:15.425Z,1020.66
2022-12-01T05:56:15.402Z,1020.62
2022-12-01T05:57:15.402Z,1020.63
2022-12-01T05:58:15.402Z,1020.63
2022-12-01T05:59:15.408Z,1020.66
2022-12-01T06:00:15.356Z,1020.63
2022-12-01T06:01:15.362Z,1020.71
2022-12-01T06:02:15.378Z,1020.66
2022-12-01T06:03:15.327Z,1020.60
2022-12-01T06:04:15.349Z,1020.69
2022-12-01T06:05:15.323Z,1020.63
2022-12-01T06:06:15.285Z,1020.70
2022-12-01T06:07:15.283Z,1020.70
2022-12-01T06:08:15.260Z,1020.65
2022-12-01T06:09:15.262Z,1020.67
2022-12-01T06:10:15.274Z,1020.70
2022-12-01T06:11:15.246Z,1020.70
2022-12-01T06:12:15.218Z,1020.72
2022-12-01T06:13:15.211Z,1020.72
2022-12-01T06:14:15.196Z,1020.69
2022-12-01T06:15:15.196Z,1020.73
2022-12-01T06:16:15.228Z,1020.72
2022-12-01T06:17:15.172Z,1020.65
2022-12-01T06:18:15.152Z,1020.74
2022-12-01T06:19:15.140Z,1020.76
2022-12-01T06:20:15.136Z,1020.75
2022-12-01T06:21:15.138Z,1020.71
2022-12-01T06:22:15.110Z,1020.79
2022-12-01T06:23:15.099Z,1020.77
2022-12-01T06:24:15.080Z,1020.73
2022-12-01T06:25:15.082Z,1020.80
2022-12-01T06:26:15.089Z,1020.76
2022-12-01T06:27:15.061Z,1020.79
2022-12-01T06:28:15.048Z,1020.76
2022-12-01T06:29:15.025Z,1020.80
2022-12-01T06:30:15.031Z,1020.81
2022-12-01T06:31:15.027Z,1020.81
2022-12-01T06:32:15.008Z,1020.82
2022-12-01T06:33:14.984Z,1020.80
2022-12-01T06:34:14.970Z,1020.83
2022-12-01T06:35:14.972Z,1020.82
2022-12-01T06:36:14.962Z,1020.76
2022-12-01T06:37:14.936Z,1020.84
2022-12-01T06:38:14.924Z,1020.87
2022-12-01T06:39:14.919Z,1020.85
2022-12-01T06:40:14.910Z,1020.89
2022-12-01T06:41:14.900Z,1020.89
2022-12-01T06:42:14.907Z,1020.83
2022-12-01T06:43:14.874Z,1020.84
2022-12-01T06:44:14.856Z,1020.85
2022-12-01T06:45:14.855Z,1020.95
2022-12-01T06:46:14.855Z,1020.90
2022-12-01T06:47:14.849Z,1020.91
2022-12-01T06:48:14.810Z,1020.92
2022-12-01T06:49:14.800Z,1020.89
2022-12-01T06:50:14.788Z,1020.93
2022-12-01T06:51:14.778Z,1020.92
2022-12-01T06:52:14.775Z,1020.99
2022-12-01T06:53:14.757Z,1020.97
2022-12-01T06:54:14.752Z,1021.00
2022-12-01T06:55:14.736Z,1021.04
2022-12-01T06:56:14.722Z,1020.96
2022-12-01T06:57:14.711Z,1020.98
2022-12-01T06:58:14.733Z,1020.94
2022-12-01T06:59:14.689Z,1020.98
2022-12-01T07:00:14.676Z,1020.98
2022-12-01T07:01:14.727Z,1020.97
2022-12-01T07:02:14.721Z,1020.99
2022-12-01T07:03:14.650Z,1020.99
2022-12-01T07:04:14.629Z,1020.96
2022-12-01T07:05:14.749Z,1020.96
2022-12-01T07:06:14.606Z,1021.05
2022-12-01T07:07:14.604Z,1021.04
2022-12-01T07:08:14.673Z,1021.12
2022-12-01T07:09:14.583Z,1020.99
2022-12-01T07:10:14.564Z,1021.06
2022-12-01T07:11:14.559Z,1020.97
2022-12-01T07:12:14.547Z,1021.13
2022-12-01T07:13:14.535Z,1021.11
2022-12-01T07:14:14.574Z,1021.08
2022-12-01T07:15:14.514Z,1021.10
2022-12-01T07:16:14.518Z,1021.13
2022-12-01T07:17:14.482Z,1021.05
2022-12-01T07:18:14.467Z,1021.11
2022-12-01T07:19:14.476Z,1021.10
2022-12-01T07:20:14.483Z,1021.13
2022-12-01T07:21:14.456Z,1021.12
2022-12-01T07:22:14.440Z,1021.08
2022-12-01T07:23:14.413Z,1021.10
2022-12-01T07:24:14.417Z,1021.12
2022-12-01T07:25:14.407Z,1021.12
2022-12-01T07:26:14.383Z,1021.12
2022-12-01T07:27:14.387Z,1021.08
2022-12-01T07:28:14.358Z,1021.13
2022-12-01T07:29:14.356Z,1021.06
2022-12-01T07:30:14.356Z,1021.09
2022-12-01T07:31:14.413Z,1021.09
2022-12-01T07:32:14.311Z,1021.11
2022-12-01T07:33:14.305Z,1021.08
2022-12-01T07:34:14.301Z,1021.14
2022-12-01T07:35:14.278Z,1021.13
2022-12-01T07:36:14.280Z,1021.13
2022-12-01T07:37:14.263Z,1021.14
2022-12-01T07:38:19.118Z,1021.09
2022-12-01T07:39:15.243Z,1021.10
2022-12-01T07:40:14.235Z,1021.04
2022-12-01T07:41:14.212Z,1021.12
2022-12-01T07:42:14.214Z,1021.15
2022-12-01T07:43:14.205Z,1021.19
2022-12-01T07:44:14.176Z,1021.16
2022-12-01T07:45:14.181Z,1021.12
2022-12-01T07:46:20.376Z,1021.17
2022-12-01T07:47:15.175Z,1021.16
2022-12-01T07:48:14.137Z,1021.20
2022-12-01T07:49:14.123Z,1021.22
2022-12-01T07:50:14.177Z,1021.15
2022-12-01T07:51:14.113Z,1021.26
2022-12-01T07:52:14.085Z,1021.24
2022-12-01T07:53:14.091Z,1021.24
2022-12-01T07:54:14.093Z,1021.21
2022-12-01T07:55:14.163Z,1021.17
2022-12-01T07:56:14.040Z,1021.24
2022-12-01T07:57:14.030Z,1021.20
2022-12-01T07:58:14.021Z,1021.17
2022-12-01T07:59:14.039Z,1021.26
2022-12-01T08:00:14.162Z,1021.18
2022-12-01T08:01:14.042Z,1021.29
2022-12-01T08:02:14.180Z,1021.28
2022-12-01T08:03:14.054Z,1021.32
2022-12-01T08:04:13.961Z,1021.23
2022-12-01T08:05:14.148Z,1021.26
2022-12-01T08:06:13.927Z,1021.28
2022-12-01T08:07:13.943Z,1021.24
2022-12-01T08:08:13.974Z,1021.27
2022-12-01T08:09:13.900Z,1021.32
2022-12-01T08:10:14.295Z,1021.33
2022-12-01T08:11:13.877Z,1021.35
2022-12-01T08:12:13.856Z,1021.31
2022-12-01T08:13:17.236Z,1021.32
2022-12-01T08:14:13.875Z,1021.33
2022-12-01T08:15:13.837Z,1021.35
2022-12-01T08:16:13.902Z,1021.27
2022-12-01T08:17:13.835Z,1021.29
2022-12-01T08:18:13.813Z,1021.33
2022-12-01T08:19:13.795Z,1021.33
2022-12-01T08:20:13.762Z,1021.33
2022-12-01T08:21:13.778Z,1021.30
2022-12-01T08:22:13.751Z,1021.33
2022-12-01T08:23:13.747Z,1021.35
2022-12-01T08:24:13.725Z,1021.36
2022-12-01T08:25:13.714Z,1021.36
2022-12-01T08:26:13.707Z,1021.34
2022-12-01T08:27:13.706Z,1021.38
2022-12-01T08:28:13.697Z,1021.39
2022-12-01T08:29:19.786Z,1021.35
2022-12-01T08:30:14.686Z,1021.35
2022-12-01T08:31:13.736Z,1021.34
2022-12-01T08:32:13.626Z,1021.35
2022-12-01T08:33:13.624Z,1021.32
2022-12-01T08:34:13.642Z,1021.41
2022-12-01T08:35:13.597Z,1021.42
2022-12-01T08:36:13.592Z,1021.43
2022-12-01T08:37:13.587Z,1021.39
2022-12-01T08:38:13.564Z,1021.41
2022-12-01T08:39:13.549Z,1021.47
2022-12-01T08:40:13.553Z,1021.47
2022-12-01T08:41:13.557Z,1021.45
2022-12-01T08:42:13.535Z,1021.49
2022-12-01T08:43:28.249Z,1021.48
2022-12-01T08:44:14.535Z,1021.47
2022-12-01T08:45:13.494Z,1021.47
2022-12-01T08:46:13.567Z,1021.40
2022-12-01T08:47:17.286Z,1021.51
2022-12-01T08:48:14.479Z,1021.50
2022-12-01T08:49:13.458Z,1021.52
2022-12-01T08:50:13.451Z,1021.45
2022-12-01T08:51:13.412Z,1021.44
2022-12-01T08:52:13.412Z,1021.47
2022-12-01T08:53:13.403Z,1021.54
2022-12-01T08:54:13.398Z,1021.43
2022-12-01T08:55:13.368Z,1021.47
2022-12-01T08:56:13.359Z,1021.51
2022-12-01T08:57:13.389Z,1021.50
2022-12-01T08:58:13.339Z,1021.51
2022-12-01T08:59:13.324Z,1021.50
2022-12-01T09:00:13.320Z,1021.54
2022-12-01T09:01:13.312Z,1021.52
2022-12-01T09:02:13.349Z,1021.51
2022-12-01T09:03:13.316Z,1021.47
2022-12-01T09:04:13.275Z,1021.52
2022-12-01T09:05:13.258Z,1021.47
2022-12-01T09:06:13.264Z,1021.47
2022-12-01T09:07:13.237Z,1021.53
2022-12-01T09:08:13.327Z,1021.48
2022-12-01T09:09:13.236Z,1021.50
2022-12-01T09:10:13.203Z,1021.50
2022-12-01T09:11:13.190Z,1021.56
2022-12-01T09:12:13.192Z,1021.56
2022-12-01T09:13:13.162Z,1021.55
2022-12-01T09:14:13.170Z,1021.47
2022-12-01T09:15:13.145Z,1021.47
2022-12-01T09:16:13.200Z,1021.55
2022-12-01T09:17:13.121Z,1021.52
2022-12-01T09:18:13.128Z,1021.50
2022-12-01T09:19:13.507Z,1021.56
2022-12-01T09:20:13.099Z,1021.47
2022-12-01T09:21:13.075Z,1021.50
2022-12-01T09:22:13.085Z,1021.58
2022-12-01T09:23:13.049Z,1021.57
2022-12-01T09:24:13.053Z,1021.57
2022-12-01T09:25:13.028Z,1021.57
2022-12-01T09:26:13.958Z,1021.61
2022-12-01T09:27:13.008Z,1021.54
2022-12-01T09:28:12.995Z,1021.56
2022-12-01T09:29:12.991Z,1021.59
2022-12-01T09:30:12.998Z,1021.55
2022-12-01T09:31:13.018Z,1021.59
2022-12-01T09:32:12.956Z,1021.58
2022-12-01T09:33:12.934Z,1021.59
2022-12-01T09:34:12.925Z,1021.61
2022-12-01T09:35:12.914Z,1021.63
2022-12-01T09:36:12.929Z,1021.61
2022-12-01T09:37:12.889Z,1021.57
2022-12-01T09:38:12.917Z,1021.60
2022-12-01T09:39:12.893Z,1021.60
2022-12-01T09:40:12.868Z,1021.62
2022-12-01T09:41:12.868Z,1021.61
2022-12-01T09:42:12.858Z,1021.66
2022-12-01T09:43:12.825Z,1021.65
2022-12-01T09:44:12.823Z,1021.64
2022-12-01T09:45:12.801Z,1021.63
2022-12-01T09:46:12.858Z,1021.65
2022-12-01T09:47:12.865Z,1021.61
2022-12-01T09:48:12.769Z,1021.56
2022-12-01T09:49:12.755Z,1021.58
2022-12-01T09:50:12.745Z,1021.55
2022-12-01T09:51:12.756Z,1021.60
2022-12-01T09:52:12.744Z,1021.54
2022-12-01T09:53:12.708Z,1021.62
2022-12-01T09:54:12.721Z,1021.56
2022-12-01T09:55:12.683Z,1021.56
2022-12-01T09:56:13.161Z,1021.55
2022-12-01T09:57:12.681Z,1021.56
2022-12-01T09:58:12.655Z,1021.54
2022-12-01T09:59:12.647Z,1021.54
2022-12-01T10:00:12.639Z,1021.51
2022-12-01T10:01:12.688Z,1021.50
2022-12-01T10:02:12.694Z,1021.48
2022-12-01T10:03:12.599Z,1021.44
2022-12-01T10:04:12.591Z,1021.43
2022-12-01T10:05:12.622Z,1021.46
2022-12-01T10:06:28.956Z,1021.47
2022-12-01T10:07:13.558Z,1021.40
2022-12-01T10:08:12.550Z,1021.46
2022-12-01T10:09:12.527Z,1021.49
2022-12-01T10:10:12.546Z,1021.44
2022-12-01T10:11:12.511Z,1021.41
2022-12-01T10:12:12.514Z,1021.40
2022-12-01T10:13:12.489Z,1021.36
2022-12-01T10:14:17.953Z,1021.40
2022-12-01T10:15:13.462Z,1021.44
2022-12-01T10:16:12.491Z,1021.40
2022-12-01T10:17:12.454Z,1021.44
2022-12-01T10:18:12.432Z,1021.41
2022-12-01T10:19:12.432Z,1021.39
2022-12-01T10:20:12.415Z,1021.39
2022-12-01T10:21:12.397Z,1021.35
2022-12-01T10:22:12.385Z,1021.39
2022-12-01T10:23:12.373Z,1021.33
2022-12-01T10:24:12.358Z,1021.35
2022-12-01T10:25:12.382Z,1021.29
2022-12-01T10:26:12.366Z,1021.37
2022-12-01T10:27:12.329Z,1021.35
2022-12-01T10:28:12.337Z,1021.35
2022-12-01T10:29:12.339Z,1021.38
2022-12-01T10:30:12.379Z,1021.34
2022-12-01T10:31:12.362Z,1021.37
2022-12-01T10:32:12.272Z,1021.42
2022-12-01T10:33:12.259Z,1021.36
2022-12-01T10:34:12.248Z,1021.32
2022-12-01T10:35:12.232Z,1021.36
2022-12-01T10:36:12.233Z,1021.37
2022-12-01T10:37:12.237Z,1021.33
2022-12-01T10:38:12.230Z,1021.37
2022-12-01T10:39:12.186Z,1021.36
2022-12-01T10:40:12.191Z,1021.35
2022-12-01T10:41:12.165Z,1021.31
2022-12-01T10:42:12.179Z,1021.33
2022-12-01T10:43:12.149Z,1021.39
2022-12-01T10:44:12.145Z,1021.32
2022-12-01T10:45:12.117Z,1021.38
2022-12-01T10:46:12.189Z,1021.36
2022-12-01T10:47:12.100Z,1021.35
2022-12-01T10:48:12.086Z,1021.40
2022-12-01T10:49:12.110Z,1021.29
2022-12-01T10:50:12.065Z,1021.33
2022-12-01T10:51:12.052Z,1021.34
2022-12-01T10:52:12.075Z,1021.34
2022-12-01T10:53:12.031Z,1021.34
2022-12-01T10:54:12.021Z,1021.31
2022-12-01T10:55:12.006Z,1021.33
2022-12-01T10:56:12.012Z,1021.28
2022-12-01T10:57:11.995Z,1021.32
2022-12-01T10:58:12.003Z,1021.37
2022-12-01T10:59:11.965Z,1021.35
2022-12-01T11:00:12.030Z,1021.38
2022-12-01T11:01:13.064Z,1021.38
2022-12-01T11:02:12.194Z,1021.31
2022-12-01T11:03:15.794Z,1021.33
2022-12-01T11:04:12.913Z,1021.29
2022-12-01T11:05:11.905Z,1021.34
2022-12-01T11:06:11.880Z,1021.32
2022-12-01T11:07:11.874Z,1021.37
2022-12-01T11:08:11.931Z,1021.30
2022-12-01T11:09:11.847Z,1021.30
2022-12-01T11:10:11.836Z,1021.33
2022-12-01T11:11:11.843Z,1021.28
2022-12-01T11:12:11.817Z,1021.26
2022-12-01T11:13:11.839Z,1021.31
2022-12-01T11:14:11.811Z,1021.33
2022-12-01T11:15:11.797Z,1021.29
2022-12-01T11:16:11.848Z,1021.28
2022-12-01T11:17:12.426Z,1021.35
2022-12-01T11:18:11.752Z,1021.34
2022-12-01T11:19:11.811Z,1021.33
2022-12-01T11:20:11.820Z,1021.31
2022-12-01T11:21:11.711Z,1021.32
2022-12-01T11:22:11.705Z,1021.30
2022-12-01T11:23:11.713Z,1021.31
2022-12-01T11:24:11.679Z,1021.29
2022-12-01T11:25:11.674Z,1021.28
2022-12-01T11:26:11.657Z,1021.31
2022-12-01T11:27:11.643Z,1021.32
2022-12-01T11:28:11.635Z,1021.31
2022-12-01T11:29:11.642Z,1021.31
2022-12-01T11:30:11.635Z,1021.32
2022-12-01T11:31:11.592Z,1021.32
2022-12-01T11:32:11.677Z,1021.33
2022-12-01T11:33:11.593Z,1021.19
2022-12-01T11:34:11.569Z,1021.21
2022-12-01T11:35:11.554Z,1021.24
2022-12-01T11:36:16.053Z,1021.21
2022-12-01T11:37:11.544Z,1021.23
2022-12-01T11:38:29.250Z,1021.29
2022-12-01T11:39:12.503Z,1021.23
2022-12-01T11:40:11.523Z,1021.31
2022-12-01T11:41:11.501Z,1021.21
2022-12-01T11:42:11.486Z,1021.24
2022-12-01T11:43:11.467Z,1021.25
2022-12-01T11:44:28.571Z,1021.20
2022-12-01T11:45:12.450Z,1021.18
2022-12-01T11:46:11.542Z,1021.18
2022-12-01T11:47:22.783Z,1021.14
2022-12-01T11:49:25.424Z,1021.23
2022-12-01T11:50:25.454Z,1021.23
2022-12-01T11:51:25.378Z,1021.22
2022-12-01T11:52:25.446Z,1021.22
2022-12-01T11:53:25.359Z,1021.19
2022-12-01T11:54:25.353Z,1021.18
2022-12-01T11:55:25.363Z,1021.13
2022-12-01T11:56:25.357Z,1021.14
2022-12-01T11:57:34.190Z,1021.15
2022-12-01T11:58:26.344Z,1021.16
2022-12-01T11:59:25.292Z,1021.09
2022-12-01T12:00:25.280Z,1021.13
2022-12-01T12:01:25.287Z,1021.10
2022-12-01T12:02:25.262Z,1021.08
2022-12-01T12:03:25.303Z,1021.07
2022-12-01T12:04:25.225Z,1021.11
2022-12-01T12:05:25.220Z,1021.05
2022-12-01T12:07:26.247Z,1021.07